createdAt,value
2022-10-01T00:00:51.587Z,1.65
2022-10-01T00:03:54.527Z,1.52
2022-10-01T00:06:57.537Z,1.98
2022-10-01T00:09:59.820Z,1.65
2022-10-01T00:13:03.166Z,2.78
2022-10-01T00:16:05.720Z,1.70
2022-10-01T00:19:08.437Z,2.17
2022-10-01T00:22:11.616Z,1.70
2022-10-01T00:25:14.517Z,1.83
2022-10-01T00:28:17.018Z,2.00
2022-10-01T00:31:19.486Z,2.42
2022-10-01T00:34:22.179Z,1.80
2022-10-01T00:37:24.580Z,2.13
2022-10-01T00:40:27.462Z,1.90
2022-10-01T00:43:30.118Z,2.30
2022-10-01T00:46:33.199Z,1.67
2022-10-01T00:49:36.406Z,1.80
2022-10-01T00:52:39.228Z,1.85
2022-10-01T00:55:42.231Z,1.55
2022-10-01T00:58:44.885Z,1.98
2022-10-01T01:01:47.767Z,1.67
2022-10-01T01:04:49.937Z,1.70
2022-10-01T01:07:52.490Z,1.50
2022-10-01T01:10:55.085Z,1.90
2022-10-01T01:13:57.984Z,1.80
2022-10-01T01:17:00.671Z,2.03
2022-10-01T01:20:03.441Z,2.30
2022-10-01T01:23:05.941Z,2.08
2022-10-01T01:26:08.534Z,2.22
2022-10-01T01:29:11.455Z,2.10
2022-10-01T01:32:15.039Z,1.58
2022-10-01T01:35:17.829Z,1.50
2022-10-01T01:38:20.930Z,1.70
2022-10-01T01:41:23.937Z,1.80
2022-10-01T01:44:26.486Z,1.85
2022-10-01T01:47:29.448Z,2.10
2022-10-01T01:50:31.926Z,1.75
2022-10-01T01:53:34.403Z,2.38
2022-10-01T01:56:37.284Z,2.20
2022-10-01T01:59:40.513Z,2.50
2022-10-01T02:02:43.348Z,2.17
2022-10-01T02:05:46.203Z,1.60
2022-10-01T02:08:49.025Z,1.55
2022-10-01T02:11:51.733Z,1.80
2022-10-01T02:14:55.325Z,2.30
2022-10-01T02:17:58.073Z,2.08
2022-10-01T02:21:00.611Z,1.75
2022-10-01T02:24:03.485Z,1.90
2022-10-01T02:27:06.272Z,1.90
2022-10-01T02:30:08.792Z,1.85
2022-10-01T02:33:11.772Z,1.80
2022-10-01T02:36:14.497Z,1.23
2022-10-01T02:39:17.633Z,2.03
2022-10-01T02:42:19.993Z,1.65
2022-10-01T02:45:22.530Z,1.50
2022-10-01T02:48:24.877Z,2.15
2022-10-01T02:51:28.206Z,1.42
2022-10-01T02:54:31.453Z,1.85
2022-10-01T02:57:34.209Z,1.30
2022-10-01T03:00:36.722Z,1.73
2022-10-01T03:03:39.526Z,1.65
2022-10-01T03:06:42.375Z,1.75
2022-10-01T03:09:45.276Z,1.30
2022-10-01T03:12:47.862Z,1.20
2022-10-01T03:15:50.558Z,1.55
2022-10-01T03:18:53.400Z,2.08
2022-10-01T03:21:56.642Z,1.27
2022-10-01T03:24:59.831Z,1.02
2022-10-01T03:28:02.732Z,1.52
2022-10-01T03:31:04.971Z,2.38
2022-10-01T03:34:07.712Z,0.77
2022-10-01T03:37:10.674Z,1.60
2022-10-01T03:40:13.780Z,1.42
2022-10-01T03:43:16.594Z,1.50
2022-10-01T03:46:19.449Z,1.40
2022-10-01T03:49:22.394Z,1.58
2022-10-01T03:52:25.598Z,1.15
2022-10-01T03:55:28.694Z,1.50
2022-10-01T03:58:31.855Z,1.33
2022-10-01T04:01:34.908Z,1.33
2022-10-01T04:04:37.587Z,1.05
2022-10-01T04:07:39.939Z,1.45
2022-10-01T04:10:42.788Z,2.15
2022-10-01T04:13:45.433Z,1.00
2022-10-01T04:16:48.108Z,0.70
2022-10-01T04:19:50.653Z,1.00
2022-10-01T04:22:53.494Z,1.33
2022-10-01T04:25:56.115Z,1.15
2022-10-01T04:28:58.959Z,0.82
2022-10-01T04:32:01.951Z,1.50
2022-10-01T04:35:04.540Z,1.10
2022-10-01T04:38:07.382Z,0.88
2022-10-01T04:41:09.752Z,0.82
2022-10-01T04:44:12.701Z,1.10
2022-10-01T04:47:15.492Z,1.10
2022-10-01T04:50:17.985Z,1.35
2022-10-01T04:53:25.370Z,0.60
2022-10-01T04:56:28.099Z,1.10
2022-10-01T04:59:30.805Z,1.40
2022-10-01T05:02:33.297Z,1.23
2022-10-01T05:05:36.259Z,1.05
2022-10-01T05:08:39.225Z,1.10
2022-10-01T05:11:42.029Z,1.45
2022-10-01T05:14:44.524Z,1.35
2022-10-01T05:17:46.989Z,0.77
2022-10-01T05:20:49.733Z,1.17
2022-10-01T05:23:51.854Z,0.98
2022-10-01T05:26:54.880Z,1.23
2022-10-01T05:29:57.524Z,1.10
2022-10-01T05:33:00.409Z,0.93
2022-10-01T05:36:03.516Z,0.95
2022-10-01T05:39:05.882Z,0.93
2022-10-01T05:42:08.828Z,1.08
2022-10-01T05:45:11.632Z,1.55
2022-10-01T05:48:14.598Z,0.88
2022-10-01T05:51:17.766Z,0.80
2022-10-01T05:54:20.990Z,1.00
2022-10-01T05:57:23.354Z,0.88
2022-10-01T06:00:26.242Z,1.70
2022-10-01T06:03:29.055Z,0.90
2022-10-01T06:06:31.564Z,1.00
2022-10-01T06:09:33.957Z,1.05
2022-10-01T06:12:36.045Z,1.10
2022-10-01T06:15:38.605Z,1.05
2022-10-01T06:18:41.565Z,1.10
2022-10-01T06:21:44.661Z,1.27
2022-10-01T06:24:47.520Z,1.45
2022-10-01T06:27:49.830Z,1.13
2022-10-01T06:30:53.370Z,1.02
2022-10-01T06:33:56.188Z,1.00
2022-10-01T06:36:59.063Z,0.93
2022-10-01T06:40:02.205Z,1.17
2022-10-01T06:43:05.917Z,1.50
2022-10-01T06:46:08.780Z,0.63
2022-10-01T06:49:12.121Z,1.63
2022-10-01T06:52:14.909Z,1.00
2022-10-01T06:55:18.085Z,0.80
2022-10-01T06:58:20.466Z,1.13
2022-10-01T07:01:22.623Z,0.70
2022-10-01T07:04:25.296Z,0.70
2022-10-01T07:07:30.009Z,1.05
2022-10-01T07:10:33.093Z,1.00
2022-10-01T07:13:36.419Z,0.80
2022-10-01T07:16:39.718Z,0.75
2022-10-01T07:19:42.602Z,1.27
2022-10-01T07:22:45.184Z,1.15
2022-10-01T07:25:47.775Z,1.92
2022-10-01T07:28:50.750Z,0.88
2022-10-01T07:31:53.360Z,1.08
2022-10-01T07:34:56.777Z,0.60
2022-10-01T07:37:59.650Z,1.38
2022-10-01T07:41:02.834Z,1.10
2022-10-01T07:44:05.881Z,1.05
2022-10-01T07:47:08.673Z,2.38
2022-10-01T07:50:11.248Z,1.25
2022-10-01T07:53:13.864Z,1.08
2022-10-01T07:56:16.574Z,1.67
2022-10-01T07:59:19.249Z,2.75
2022-10-01T08:02:22.868Z,1.30
2022-10-01T08:05:25.775Z,0.73
2022-10-01T08:08:28.458Z,1.50
2022-10-01T08:11:31.572Z,0.68
2022-10-01T08:14:34.757Z,1.20
2022-10-01T08:17:37.280Z,1.50
2022-10-01T08:20:40.084Z,1.40
2022-10-01T08:23:42.817Z,1.70
2022-10-01T08:26:45.632Z,1.27
2022-10-01T08:29:48.805Z,1.45
2022-10-01T08:32:51.429Z,1.17
2022-10-01T08:35:53.942Z,0.90
2022-10-01T08:38:56.927Z,1.65
2022-10-01T08:41:59.052Z,1.55
2022-10-01T08:45:01.603Z,1.48
2022-10-01T08:48:03.976Z,1.25
2022-10-01T08:51:06.096Z,1.00
2022-10-01T08:54:09.044Z,2.20
2022-10-01T08:57:11.937Z,1.55
2022-10-01T09:00:14.475Z,1.33
2022-10-01T09:03:17.595Z,1.35
2022-10-01T09:06:20.734Z,1.88
2022-10-01T09:09:24.057Z,1.70
2022-10-01T09:12:26.932Z,1.30
2022-10-01T09:15:29.796Z,1.42
2022-10-01T09:18:32.951Z,1.98
2022-10-01T09:21:36.006Z,1.10
2022-10-01T09:24:38.651Z,1.35
2022-10-01T09:27:41.141Z,1.52
2022-10-01T09:30:43.999Z,1.15
2022-10-01T09:33:46.749Z,1.10
2022-10-01T09:36:50.170Z,1.23
2022-10-01T09:39:52.900Z,1.30
2022-10-01T09:42:55.911Z,1.20
2022-10-01T09:45:59.762Z,1.73
2022-10-01T09:49:01.964Z,1.63
2022-10-01T09:52:04.802Z,1.10
2022-10-01T09:55:07.358Z,1.17
2022-10-01T09:58:10.696Z,1.67
2022-10-01T10:01:12.649Z,1.33
2022-10-01T10:04:19.861Z,1.33
2022-10-01T10:07:22.875Z,1.50
2022-10-01T10:10:26.033Z,1.45
2022-10-01T10:13:28.400Z,1.42
2022-10-01T10:16:30.598Z,1.45
2022-10-01T10:19:33.141Z,1.23
2022-10-01T10:22:35.335Z,1.45
2022-10-01T10:25:37.905Z,1.92
2022-10-01T10:28:43.854Z,1.60
2022-10-01T10:31:46.669Z,0.88
2022-10-01T10:34:49.460Z,2.38
2022-10-01T10:37:52.164Z,1.45
2022-10-01T10:40:55.227Z,2.00
2022-10-01T10:43:58.066Z,1.52
2022-10-01T10:47:00.593Z,1.13
2022-10-01T10:50:03.093Z,2.50
2022-10-01T10:53:06.017Z,2.33
2022-10-01T10:56:08.596Z,2.10
2022-10-01T10:59:11.201Z,1.73
2022-10-01T11:02:14.347Z,2.22
2022-10-01T11:05:17.121Z,1.58
2022-10-01T11:08:20.288Z,1.85
2022-10-01T11:11:23.109Z,2.03
2022-10-01T11:14:25.917Z,2.45
2022-10-01T11:17:28.676Z,2.13
2022-10-01T11:20:31.085Z,2.10
2022-10-01T11:23:33.694Z,2.58
2022-10-01T11:26:36.847Z,1.60
2022-10-01T11:29:39.480Z,0.93
2022-10-01T11:32:41.690Z,2.90
2022-10-01T11:35:44.275Z,1.75
2022-10-01T11:38:46.827Z,3.38
2022-10-01T11:41:49.470Z,3.53
2022-10-01T11:44:52.254Z,2.33
2022-10-01T11:47:54.626Z,2.42
2022-10-01T11:50:57.134Z,2.67
2022-10-01T11:54:00.327Z,1.70
2022-10-01T11:57:03.151Z,2.80
2022-10-01T12:00:05.789Z,1.80
2022-10-01T12:03:14.295Z,2.05
2022-10-01T12:06:17.053Z,2.70
2022-10-01T12:09:19.908Z,2.15
2022-10-01T12:12:22.880Z,2.13
2022-10-01T12:15:25.738Z,2.10
2022-10-01T12:18:27.928Z,2.70
2022-10-01T12:21:30.781Z,2.70
2022-10-01T12:24:33.896Z,1.95
2022-10-01T12:27:36.860Z,1.80
2022-10-01T12:30:39.342Z,3.13
2022-10-01T12:33:42.566Z,2.20
2022-10-01T12:36:45.114Z,2.58
2022-10-01T12:39:47.801Z,2.13
2022-10-01T12:42:50.645Z,2.60
2022-10-01T12:45:53.677Z,1.77
2022-10-01T12:48:56.926Z,3.28
2022-10-01T12:51:59.938Z,2.33
2022-10-01T12:55:03.184Z,2.95
2022-10-01T12:58:06.207Z,2.03
2022-10-01T13:01:08.951Z,2.08
2022-10-01T13:04:11.335Z,2.63
2022-10-01T13:07:14.981Z,3.50
2022-10-01T13:10:17.733Z,1.90
2022-10-01T13:13:20.959Z,2.50
2022-10-01T13:16:23.781Z,2.75
2022-10-01T13:19:26.421Z,2.80
2022-10-01T13:22:28.935Z,2.28
2022-10-01T13:25:31.085Z,2.63
2022-10-01T13:28:33.248Z,2.78
2022-10-01T13:31:35.925Z,2.00
2022-10-01T13:34:38.466Z,2.00
2022-10-01T13:37:41.346Z,1.95
2022-10-01T13:40:43.582Z,2.63
2022-10-01T13:43:46.551Z,2.65
2022-10-01T13:46:49.156Z,2.92
2022-10-01T13:49:51.730Z,1.38
2022-10-01T13:52:54.498Z,1.85
2022-10-01T13:55:57.118Z,2.78
2022-10-01T13:59:00.069Z,2.88
2022-10-01T14:02:03.117Z,2.17
2022-10-01T14:05:05.827Z,2.30
2022-10-01T14:08:11.662Z,1.77
2022-10-01T14:11:14.370Z,2.80
2022-10-01T14:14:17.240Z,3.20
2022-10-01T14:17:19.670Z,3.25
2022-10-01T14:20:22.562Z,3.65
2022-10-01T14:23:25.644Z,2.42
2022-10-01T14:26:28.197Z,2.05
2022-10-01T14:29:30.299Z,2.80
2022-10-01T14:32:32.913Z,2.70
2022-10-01T14:35:35.847Z,3.65
2022-10-01T14:38:39.077Z,3.40
2022-10-01T14:41:42.345Z,2.45
2022-10-01T14:44:45.122Z,2.58
2022-10-01T14:47:47.762Z,2.83
2022-10-01T14:50:49.659Z,2.33
2022-10-01T14:53:51.803Z,2.70
2022-10-01T14:56:54.590Z,3.42
2022-10-01T14:59:57.143Z,2.70
2022-10-01T15:02:59.995Z,2.55
2022-10-01T15:06:02.205Z,3.25
2022-10-01T15:09:05.114Z,1.80
2022-10-01T15:12:07.686Z,2.33
2022-10-01T15:15:10.237Z,3.20
2022-10-01T15:18:13.116Z,2.63
2022-10-01T15:21:15.922Z,2.95
2022-10-01T15:24:18.822Z,2.38
2022-10-01T15:27:21.716Z,3.55
2022-10-01T15:30:24.277Z,4.10
2022-10-01T15:33:26.849Z,3.22
2022-10-01T15:36:28.972Z,4.10
2022-10-01T15:39:31.872Z,2.60
2022-10-01T15:42:35.070Z,2.88
2022-10-01T15:45:38.246Z,4.00
2022-10-01T15:48:40.642Z,2.80
2022-10-01T15:51:42.830Z,4.25
2022-10-01T15:54:45.436Z,3.03
2022-10-01T15:57:48.377Z,3.05
2022-10-01T16:00:51.620Z,4.13
2022-10-01T16:03:54.569Z,3.45
2022-10-01T16:06:57.044Z,4.07
2022-10-01T16:09:59.482Z,3.67
2022-10-01T16:13:02.046Z,2.75
2022-10-01T16:16:05.505Z,2.55
2022-10-01T16:19:08.121Z,3.40
2022-10-01T16:22:10.717Z,3.25
2022-10-01T16:25:13.478Z,2.85
2022-10-01T16:28:16.062Z,2.38
2022-10-01T16:31:19.594Z,2.67
2022-10-01T16:34:22.426Z,3.10
2022-10-01T16:37:24.573Z,2.53
2022-10-01T16:40:27.455Z,3.35
2022-10-01T16:43:30.210Z,4.88
2022-10-01T16:46:33.414Z,2.38
2022-10-01T16:49:36.031Z,3.00
2022-10-01T16:52:38.845Z,3.63
2022-10-01T16:55:41.827Z,3.60
2022-10-01T16:58:45.458Z,3.83
2022-10-01T17:01:48.431Z,2.78
2022-10-01T17:04:50.962Z,3.10
2022-10-01T17:07:53.774Z,3.10
2022-10-01T17:10:56.285Z,3.00
2022-10-01T17:13:58.706Z,4.15
2022-10-01T17:17:01.532Z,3.22
2022-10-01T17:20:04.392Z,3.88
2022-10-01T17:23:06.922Z,2.65
2022-10-01T17:26:09.599Z,2.45
2022-10-01T17:29:12.165Z,2.80
2022-10-01T17:32:14.809Z,3.47
2022-10-01T17:35:17.447Z,1.85
2022-10-01T17:38:20.244Z,3.58
2022-10-01T17:41:22.940Z,3.28
2022-10-01T17:44:26.285Z,2.38
2022-10-01T17:47:30.381Z,3.03
2022-10-01T17:50:32.561Z,1.80
2022-10-01T17:53:41.832Z,2.60
2022-10-01T17:56:45.385Z,2.80
2022-10-01T17:59:48.701Z,2.80
2022-10-01T18:02:51.214Z,3.53
2022-10-01T18:05:54.501Z,2.72
2022-10-01T18:08:57.387Z,3.88
2022-10-01T18:12:00.253Z,1.95
2022-10-01T18:15:03.465Z,2.95
2022-10-01T18:19:31.054Z,1.92
2022-10-01T18:21:31.289Z,1.92
2022-10-01T18:24:33.828Z,2.22
2022-10-01T18:27:36.366Z,2.38
2022-10-01T18:30:38.951Z,2.10
2022-10-01T18:33:41.859Z,2.53
2022-10-01T18:36:45.022Z,1.75
2022-10-01T18:39:47.903Z,2.17
2022-10-01T18:42:50.476Z,2.53
2022-10-01T18:45:53.473Z,2.22
2022-10-01T18:48:56.075Z,1.88
2022-10-01T18:51:58.325Z,1.77
2022-10-01T18:55:00.943Z,1.77
2022-10-01T18:58:03.906Z,2.60
2022-10-01T19:01:06.439Z,2.08
2022-10-01T19:04:08.696Z,1.92
2022-10-01T19:07:11.286Z,2.30
2022-10-01T19:10:13.942Z,1.92
2022-10-01T19:13:16.508Z,2.92
2022-10-01T19:16:18.918Z,2.28
2022-10-01T19:19:21.309Z,3.60
2022-10-01T19:22:24.245Z,2.35
2022-10-01T19:25:27.039Z,2.00
2022-10-01T19:28:29.924Z,2.58
2022-10-01T19:31:32.395Z,2.35
2022-10-01T19:34:35.062Z,2.30
2022-10-01T19:37:37.234Z,1.15
2022-10-01T19:40:39.774Z,2.15
2022-10-01T19:43:42.272Z,3.95
2022-10-01T19:46:45.031Z,2.17
2022-10-01T19:49:47.796Z,2.35
2022-10-01T19:52:50.902Z,3.13
2022-10-01T19:55:53.407Z,2.08
2022-10-01T19:58:55.993Z,2.17
2022-10-01T20:02:03.193Z,1.52
2022-10-01T20:05:06.538Z,1.70
2022-10-01T20:08:08.943Z,2.80
2022-10-01T20:11:11.147Z,1.90
2022-10-01T20:14:14.132Z,1.75
2022-10-01T20:17:16.644Z,2.90
2022-10-01T20:20:19.544Z,3.70
2022-10-01T20:23:22.365Z,2.40
2022-10-01T20:26:25.326Z,2.85
2022-10-01T20:29:28.024Z,2.85
2022-10-01T20:32:30.398Z,1.98
2022-10-01T20:35:32.514Z,1.83
2022-10-01T20:38:35.146Z,3.35
2022-10-01T20:41:42.295Z,1.90
2022-10-01T20:44:45.197Z,2.65
2022-10-01T20:47:47.780Z,2.67
2022-10-01T20:50:50.767Z,2.72
2022-10-01T20:53:53.235Z,2.58
2022-10-01T20:56:55.976Z,3.08
2022-10-01T20:59:58.614Z,2.72
2022-10-01T21:03:00.758Z,2.25
2022-10-01T21:06:03.251Z,3.15
2022-10-01T21:09:05.818Z,2.72
2022-10-01T21:12:08.379Z,2.85
2022-10-01T21:15:10.559Z,2.50
2022-10-01T21:18:13.213Z,2.55
2022-10-01T21:21:16.100Z,2.97
2022-10-01T21:24:18.692Z,2.97
2022-10-01T21:27:21.355Z,2.35
2022-10-01T21:30:24.580Z,2.80
2022-10-01T21:33:27.732Z,2.90
2022-10-01T21:36:30.849Z,1.92
2022-10-01T21:39:34.265Z,3.30
2022-10-01T21:42:37.974Z,2.40
2022-10-01T21:45:41.011Z,3.97
2022-10-01T21:48:43.977Z,2.35
2022-10-01T21:51:46.763Z,2.70
2022-10-01T21:54:49.812Z,2.15
2022-10-01T21:57:53.173Z,2.30
2022-10-01T22:00:56.107Z,2.13
2022-10-01T22:03:59.129Z,2.80
2022-10-01T22:07:01.692Z,2.45
2022-10-01T22:10:04.184Z,2.97
2022-10-01T22:13:06.984Z,2.28
2022-10-01T22:16:09.608Z,2.65
2022-10-01T22:19:12.092Z,2.33
2022-10-01T22:22:14.941Z,2.72
2022-10-01T22:25:17.860Z,2.25
2022-10-01T22:28:20.291Z,3.25
2022-10-01T22:31:22.838Z,2.90
2022-10-01T22:34:25.289Z,2.35
2022-10-01T22:37:28.120Z,2.17
2022-10-01T22:40:31.009Z,3.67
2022-10-01T22:43:34.018Z,2.35
2022-10-01T22:46:36.818Z,3.20
2022-10-01T22:49:39.216Z,1.85
2022-10-01T22:52:41.837Z,3.20
2022-10-01T22:55:44.410Z,3.25
2022-10-01T22:58:47.057Z,3.50
2022-10-01T23:01:50.193Z,2.40
2022-10-01T23:04:53.107Z,2.38
2022-10-01T23:07:55.654Z,2.05
2022-10-01T23:10:58.711Z,2.70
2022-10-01T23:14:01.894Z,3.28
2022-10-01T23:17:04.762Z,3.03
2022-10-01T23:20:07.282Z,2.22
2022-10-01T23:23:09.452Z,3.05
2022-10-01T23:26:12.095Z,3.85
2022-10-01T23:29:14.317Z,1.98
2022-10-01T23:32:16.924Z,2.28
2022-10-01T23:35:19.804Z,2.70
2022-10-01T23:38:22.522Z,3.22
2022-10-01T23:41:25.543Z,3.90
2022-10-01T23:44:28.771Z,2.22
2022-10-01T23:47:31.690Z,2.03
2022-10-01T23:50:34.079Z,4.32
2022-10-01T23:53:37.117Z,2.75
2022-10-01T23:56:39.875Z,3.33
2022-10-01T23:59:42.443Z,3.40
